PWSweather.com
Personal Weather Stations
Station Observations
STPETERS
BroadstairsGB

BroadstairsGB

Lat: 51.37, Lon: 1.423

Elevation: 141

Station Type: WH1081

Latest ConditionsUpdated 2:15:01 PM GMT Monday, Sep 24, 2018
Currently Today's Max Today's Min Today's Average
Temperature 56.7°F13.7°C 56.8°F13.8°C 46.6°F8.1°C 51.8°F11.0°C
Dew Point 32.6°F0.3°C 32.8°F0.4°C 23.6°F-4.7°C 28.3°F-2.1°C
Winds 8.4 mph NW13.5 kmh NW 11.6 mph -18.7 kmh - - 6.8 mph 10.9 kmh
Wind Gusts 11.4 mph18.3 kmh 15.9 mph25.6 kmh - -
Humidity 40% 40% 40% 40%
Pressure 30.62 in1036.9 mb 30.62 in1036.9 mb 30.03 in1016.9 mb -
Hour Temp Dew Point Humidity Winds Wind Gusts Pressure Precip Precip Rate Daily Precip Total
02:15 PM 56.7°F13.7°C 32.6°F0.3°C 40% 8.4 mph NW13.5 kmh NW 11.4 mph18.3 kmh 30.62 in1036.9 mb 0.00 in0.0 mm 0.00 in0.0 mm 0.00 in0.0 mm
02:00 PM 56.8°F13.8°C 32.8°F0.4°C 40% 7.8 mph NW12.6 kmh NW 12.1 mph19.5 kmh 30.62 in1036.9 mb 0.00 in0.0 mm 0.00 in0.0 mm 0.00 in0.0 mm
01:45 PM 56.7°F13.7°C 32.6°F0.3°C 40% 6.9 mph NW11.1 kmh NW 10.7 mph17.2 kmh 30.61 in1036.6 mb 0.00 in0.0 mm 0.00 in0.0 mm 0.00 in0.0 mm
01:30 PM 56.3°F13.5°C 32.3°F0.2°C 40% 8.1 mph NW13.0 kmh NW 10.7 mph17.2 kmh 30.61 in1036.6 mb 0.00 in0.0 mm 0.00 in0.0 mm 0.00 in0.0 mm
01:15 PM 56.1°F13.4°C 32.1°F0.1°C 40% 7.7 mph NW12.4 kmh NW 10.7 mph17.2 kmh 30.61 in1036.6 mb 0.00 in0.0 mm 0.00 in0.0 mm 0.00 in0.0 mm
01:00 PM 55.9°F13.3°C 32.0°F0.0°C 40% 9.0 mph NW14.5 kmh NW 13.6 mph21.9 kmh 30.61 in1036.6 mb 0.00 in0.0 mm 0.00 in0.0 mm 0.00 in0.0 mm
12:45 PM 55.9°F13.3°C 32.0°F0.0°C 40% 8.3 mph NW13.4 kmh NW 13.0 mph20.9 kmh 30.61 in1036.6 mb 0.00 in0.0 mm 0.00 in0.0 mm 0.00 in0.0 mm
12:30 PM 55.6°F13.1°C 31.7°F-0.2°C 40% 6.9 mph NW11.1 kmh NW 9.8 mph15.8 kmh 30.62 in1036.9 mb 0.00 in0.0 mm 0.00 in0.0 mm 0.00 in0.0 mm
12:15 PM 55.4°F13.0°C 31.5°F-0.3°C 40% 8.4 mph NW13.5 kmh NW 11.4 mph18.3 kmh 30.62 in1036.9 mb 0.00 in0.0 mm 0.00 in0.0 mm 0.00 in0.0 mm
12:00 PM 55.0°F12.8°C 31.2°F-0.4°C 40% 8.7 mph NW14.0 kmh NW 13.6 mph21.9 kmh 30.62 in1036.9 mb 0.00 in0.0 mm 0.00 in0.0 mm 0.00 in0.0 mm
11:45 AM 54.5°F12.5°C 30.7°F-0.7°C 40% 9.1 mph NW14.6 kmh NW 13.6 mph21.9 kmh 30.62 in1036.9 mb 0.00 in0.0 mm 0.00 in0.0 mm 0.00 in0.0 mm
11:30 AM 54.1°F12.3°C 30.4°F-0.9°C 40% 9.3 mph NW15.0 kmh NW 12.1 mph19.5 kmh 30.62 in1036.9 mb 0.00 in0.0 mm 0.00 in0.0 mm 0.00 in0.0 mm
11:15 AM 54.0°F12.2°C 30.2°F-1.0°C 40% 8.2 mph WNW13.2 kmh WNW 12.1 mph19.5 kmh 30.62 in1036.9 mb 0.00 in0.0 mm 0.00 in0.0 mm 0.00 in0.0 mm
11:00 AM 53.8°F12.1°C 30.0°F-1.1°C 40% 8.5 mph W13.7 kmh W 11.4 mph18.3 kmh 30.62 in1036.9 mb 0.00 in0.0 mm 0.00 in0.0 mm 0.00 in0.0 mm
10:45 AM 53.4°F11.9°C 29.7°F-1.3°C 40% 6.5 mph NW10.5 kmh NW 8.3 mph13.4 kmh 30.61 in1036.6 mb 0.00 in0.0 mm 0.00 in0.0 mm 0.00 in0.0 mm
10:30 AM 52.9°F11.6°C 29.2°F-1.6°C 40% 7.4 mph SW11.9 kmh SW 10.7 mph17.2 kmh 30.61 in1036.6 mb 0.00 in0.0 mm 0.00 in0.0 mm 0.00 in0.0 mm
10:15 AM 52.5°F11.4°C 28.9°F-1.7°C 40% 8.0 mph WSW12.9 kmh WSW 10.7 mph17.2 kmh 30.61 in1036.6 mb 0.00 in0.0 mm 0.00 in0.0 mm 0.00 in0.0 mm
10:00 AM 52.3°F11.3°C 28.7°F-1.8°C 40% 7.8 mph WSW12.6 kmh WSW 10.7 mph17.2 kmh 30.61 in1036.6 mb 0.00 in0.0 mm 0.00 in0.0 mm 0.00 in0.0 mm
09:45 AM 52.2°F11.2°C 28.6°F-1.9°C 40% 7.0 mph W11.3 kmh W 8.3 mph13.4 kmh 30.61 in1036.6 mb 0.00 in0.0 mm 0.00 in0.0 mm 0.00 in0.0 mm
09:30 AM 52.0°F11.1°C 28.4°F-2.0°C 40% 7.1 mph NE11.4 kmh NE 9.2 mph14.8 kmh 30.60 in1036.2 mb 0.00 in0.0 mm 0.00 in0.0 mm 0.00 in0.0 mm
09:15 AM 51.6°F10.9°C 28.1°F-2.2°C 40% 7.8 mph NW12.6 kmh NW 10.7 mph17.2 kmh 30.60 in1036.2 mb 0.00 in0.0 mm 0.00 in0.0 mm 0.00 in0.0 mm
09:00 AM 51.4°F10.8°C 27.9°F-2.3°C 40% 6.5 mph W10.5 kmh W 9.2 mph14.8 kmh 30.59 in1035.9 mb 0.00 in0.0 mm 0.00 in0.0 mm 0.00 in0.0 mm
08:45 AM 51.1°F10.6°C 27.6°F-2.4°C 40% 5.3 mph NW8.5 kmh NW 6.9 mph11.1 kmh 30.59 in1035.9 mb 0.00 in0.0 mm 0.00 in0.0 mm 0.00 in0.0 mm
08:30 AM 50.9°F10.5°C 27.5°F-2.5°C 40% 6.5 mph NW10.5 kmh NW 9.8 mph15.8 kmh 30.59 in1035.9 mb 0.00 in0.0 mm 0.00 in0.0 mm 0.00 in0.0 mm
08:15 AM 50.5°F10.3°C 27.1°F-2.7°C 40% 6.0 mph NNW9.7 kmh NNW 8.3 mph13.4 kmh 30.58 in1035.6 mb 0.00 in0.0 mm 0.00 in0.0 mm 0.00 in0.0 mm
08:00 AM 50.4°F10.2°C 27.0°F-2.8°C 40% 7.5 mph N12.1 kmh N 10.7 mph17.2 kmh 30.58 in1035.6 mb 0.00 in0.0 mm 0.00 in0.0 mm 0.00 in0.0 mm
07:45 AM 50.5°F10.3°C 27.1°F-2.7°C 40% 6.6 mph N10.6 kmh N 9.8 mph15.8 kmh 30.57 in1035.2 mb 0.00 in0.0 mm 0.00 in0.0 mm 0.00 in0.0 mm
07:30 AM 50.4°F10.2°C 27.0°F-2.8°C 40% 5.6 mph N9.0 kmh N 8.3 mph13.4 kmh 30.56 in1034.9 mb 0.00 in0.0 mm 0.00 in0.0 mm 0.00 in0.0 mm
07:15 AM 50.0°F10.0°C 26.6°F-3.0°C 40% 5.0 mph N8.0 kmh N 6.9 mph11.1 kmh 30.55 in1034.5 mb 0.00 in0.0 mm 0.00 in0.0 mm 0.00 in0.0 mm
07:00 AM 49.5°F9.7°C 26.2°F-3.2°C 40% 5.4 mph N8.7 kmh N 7.6 mph12.2 kmh 30.55 in1034.5 mb 0.00 in0.0 mm 0.00 in0.0 mm 0.00 in0.0 mm
06:45 AM 48.9°F9.4°C 25.7°F-3.5°C 40% 5.4 mph N8.7 kmh N 7.6 mph12.2 kmh 30.17 in1021.7 mb 0.00 in0.0 mm 0.00 in0.0 mm 0.00 in0.0 mm
06:30 AM 48.2°F9.0°C 25.0°F-3.9°C 40% 4.5 mph NW7.2 kmh NW 6.0 mph9.7 kmh 30.16 in1021.3 mb 0.00 in0.0 mm 0.00 in0.0 mm 0.00 in0.0 mm
06:15 AM 47.5°F8.6°C 24.4°F-4.2°C 40% 3.2 mph NW5.1 kmh NW 3.8 mph6.1 kmh 30.16 in1021.3 mb 0.00 in0.0 mm 0.00 in0.0 mm 0.00 in0.0 mm
06:00 AM 47.1°F8.4°C 24.1°F-4.4°C 40% 3.2 mph NW5.1 kmh NW 4.5 mph7.2 kmh 30.15 in1021.0 mb 0.00 in0.0 mm 0.00 in0.0 mm 0.00 in0.0 mm
05:45 AM 46.9°F8.3°C 23.9°F-4.5°C 40% 3.1 mph NW5.0 kmh NW 3.8 mph6.1 kmh 30.15 in1021.0 mb 0.00 in0.0 mm 0.00 in0.0 mm 0.00 in0.0 mm
05:30 AM 46.9°F8.3°C 23.9°F-4.5°C 40% 3.9 mph NW6.3 kmh NW 5.4 mph8.7 kmh 30.14 in1020.7 mb 0.00 in0.0 mm 0.00 in0.0 mm 0.00 in0.0 mm
05:15 AM 50.0°F10.0°C 26.6°F-3.0°C 40% 3.9 mph NW6.3 kmh NW 5.4 mph8.7 kmh 30.14 in1020.7 mb 0.00 in0.0 mm 0.00 in0.0 mm 0.00 in0.0 mm
05:00 AM 46.6°F8.1°C 23.6°F-4.7°C 40% 4.3 mph NW6.9 kmh NW 5.4 mph8.7 kmh 30.14 in1020.7 mb 0.00 in0.0 mm 0.00 in0.0 mm 0.00 in0.0 mm
04:45 AM 46.8°F8.2°C 23.7°F-4.6°C 40% 4.7 mph W7.6 kmh W 6.0 mph9.7 kmh 30.14 in1020.7 mb 0.00 in0.0 mm 0.00 in0.0 mm 0.00 in0.0 mm
04:30 AM 47.8°F8.8°C 24.7°F-4.1°C 40% 5.3 mph W8.5 kmh W 6.9 mph11.1 kmh 30.13 in1020.3 mb 0.00 in0.0 mm 0.00 in0.0 mm 0.00 in0.0 mm
04:15 AM 50.0°F10.0°C 26.6°F-3.0°C 40% 3.8 mph W6.1 kmh W 5.4 mph8.7 kmh 30.13 in1020.3 mb 0.00 in0.0 mm 0.00 in0.0 mm 0.00 in0.0 mm
04:00 AM 52.9°F11.6°C 29.2°F-1.6°C 40% 5.3 mph W8.5 kmh W 7.6 mph12.2 kmh 30.12 in1020.0 mb 0.00 in0.0 mm 0.00 in0.0 mm 0.00 in0.0 mm
03:45 AM 51.3°F10.7°C 27.8°F-2.3°C 40% 5.7 mph W9.2 kmh W 9.8 mph15.8 kmh 30.11 in1019.6 mb 0.00 in0.0 mm 0.00 in0.0 mm 0.00 in0.0 mm
03:30 AM 51.4°F10.8°C 27.9°F-2.3°C 40% 6.9 mph W11.1 kmh W 9.8 mph15.8 kmh 30.11 in1019.6 mb 0.00 in0.0 mm 0.00 in0.0 mm 0.00 in0.0 mm
03:15 AM 51.4°F10.8°C 27.9°F-2.3°C 40% 7.5 mph W12.1 kmh W 10.7 mph17.2 kmh 30.11 in1019.6 mb 0.00 in0.0 mm 0.00 in0.0 mm 0.00 in0.0 mm
03:00 AM 51.4°F10.8°C 27.9°F-2.3°C 40% 6.1 mph W9.8 kmh W 9.8 mph15.8 kmh 30.11 in1019.6 mb 0.00 in0.0 mm 0.00 in0.0 mm 0.00 in0.0 mm
02:45 AM 51.4°F10.8°C 27.9°F-2.3°C 40% 6.9 mph W11.1 kmh W 9.2 mph14.8 kmh 30.10 in1019.3 mb 0.00 in0.0 mm 0.00 in0.0 mm 0.00 in0.0 mm
02:30 AM 51.4°F10.8°C 27.9°F-2.3°C 40% 7.5 mph W12.1 kmh W 12.1 mph19.5 kmh 30.09 in1019.0 mb 0.00 in0.0 mm 0.00 in0.0 mm 0.00 in0.0 mm
02:15 AM 51.3°F10.7°C 27.8°F-2.3°C 40% 5.2 mph W8.4 kmh W 9.2 mph14.8 kmh 30.09 in1019.0 mb 0.00 in0.0 mm 0.00 in0.0 mm 0.00 in0.0 mm
02:00 AM 51.6°F10.9°C 28.1°F-2.2°C 40% 6.1 mph W9.8 kmh W 9.2 mph14.8 kmh 30.08 in1018.6 mb 0.00 in0.0 mm 0.00 in0.0 mm 0.00 in0.0 mm
01:45 AM 51.8°F11.0°C 28.3°F-2.1°C 40% 6.5 mph W10.5 kmh W 10.7 mph17.2 kmh 30.08 in1018.6 mb 0.00 in0.0 mm 0.00 in0.0 mm 0.00 in0.0 mm
01:30 AM 51.8°F11.0°C 28.3°F-2.1°C 40% 7.3 mph W11.7 kmh W 15.2 mph24.5 kmh 30.08 in1018.6 mb 0.00 in0.0 mm 0.00 in0.0 mm 0.00 in0.0 mm
01:15 AM 52.0°F11.1°C 28.4°F-2.0°C 40% 7.4 mph W11.9 kmh W 13.0 mph20.9 kmh 30.07 in1018.3 mb 0.00 in0.0 mm 0.00 in0.0 mm 0.00 in0.0 mm
01:00 AM 52.0°F11.1°C 28.4°F-2.0°C 40% 8.2 mph W13.2 kmh W 13.0 mph20.9 kmh 30.06 in1017.9 mb 0.00 in0.0 mm 0.00 in0.0 mm 0.00 in0.0 mm
12:45 AM 52.2°F11.2°C 28.6°F-1.9°C 40% 9.6 mph W15.4 kmh W 15.9 mph25.6 kmh 30.05 in1017.6 mb 0.00 in0.0 mm 0.00 in0.0 mm 0.00 in0.0 mm
12:30 AM 52.2°F11.2°C 28.6°F-1.9°C 40% 9.3 mph W15.0 kmh W 14.5 mph23.3 kmh 30.05 in1017.6 mb 0.00 in0.0 mm 0.00 in0.0 mm 0.00 in0.0 mm
12:15 AM 52.3°F11.3°C 28.7°F-1.8°C 40% 8.2 mph W13.2 kmh W 11.4 mph18.3 kmh 30.04 in1017.3 mb 0.00 in0.0 mm 0.00 in0.0 mm 0.00 in0.0 mm
12:00 AM 52.7°F11.5°C 29.1°F-1.6°C 40% 11.6 mph W18.7 kmh W 15.9 mph25.6 kmh 30.03 in1016.9 mb 0.00 in0.0 mm 0.00 in0.0 mm 0.00 in0.0 mm